Time;durP1;ratioP1;P1;durP2;ratioP2;P2;SDS_P1;SDS_P2;PMS_P1;PMS_P2;Temp;Humidity;BMP_temperature;BMP_pressure;BME280_temperature;BME280_humidity;BME280_pressure;Samples;Min_cycle;Max_cycle;Signal;HPM_P1;HPM_P2
2021/11/06 00:01:45;;;;;;;2.85;0.10;;;8.70;99.90;;;;;;5056750;28;20078;-75
2021/11/06 00:04:11;;;;;;;3.20;0.22;;;8.60;99.90;;;;;;5074603;28;20103;-75
2021/11/06 00:06:36;;;;;;;0.82;0.10;;;8.60;99.90;;;;;;5056579;28;20069;-75
2021/11/06 00:09:02;;;;;;;2.47;0.25;;;8.60;99.90;;;;;;5074993;28;20024;-75
2021/11/06 00:11:28;;;;;;;5.07;0.65;;;8.60;99.90;;;;;;5074747;28;20017;-75
2021/11/06 00:13:54;;;;;;;3.28;0.70;;;8.60;99.90;;;;;;5056507;28;20167;-76
2021/11/06 00:16:19;;;;;;;7.65;0.10;;;8.60;99.90;;;;;;5056619;28;20028;-75
2021/11/06 00:18:45;;;;;;;2.80;0.22;;;8.70;99.90;;;;;;5074335;28;20505;-76
2021/11/06 00:21:10;;;;;;;2.75;0.17;;;8.60;99.90;;;;;;5074278;28;20040;-75
2021/11/06 00:23:36;;;;;;;4.35;0.38;;;8.60;99.90;;;;;;5074286;28;20385;-75
2021/11/06 00:26:02;;;;;;;3.28;0.47;;;8.60;99.90;;;;;;5074215;28;20039;-76
2021/11/06 00:28:28;;;;;;;3.50;0.50;;;8.50;99.90;;;;;;5073969;28;20021;-75
2021/11/06 00:30:53;;;;;;;1.85;0.10;;;8.60;99.90;;;;;;5073374;28;20428;-75
2021/11/06 00:33:19;;;;;;;5.15;0.10;;;8.60;99.90;;;;;;5056121;28;20028;-75
2021/11/06 00:35:45;;;;;;;4.13;0.65;;;8.60;99.90;;;;;;5056108;28;20029;-76
2021/11/06 00:38:10;;;;;;;4.22;0.60;;;8.60;99.90;;;;;;5056335;28;20413;-75
2021/11/06 00:41:21;;;;;;;5.00;0.47;;;8.60;99.90;;;;;;5056090;28;20108;-76
2021/11/06 00:43:48;;;;;;;6.00;0.30;;;8.50;99.90;;;;;;5039008;28;20426;-76
2021/11/06 00:46:14;;;;;;;1.63;0.25;;;8.50;99.90;;;;;;5073857;28;20059;-76
2021/11/06 00:48:39;;;;;;;2.70;0.20;;;8.50;99.90;;;;;;5073600;28;20032;-75
2021/11/06 00:51:07;;;;;;;5.93;0.77;;;8.50;99.90;;;;;;5073811;28;20020;-76
2021/11/06 00:53:32;;;;;;;6.30;0.57;;;8.50;99.90;;;;;;5073935;28;20062;-76
2021/11/06 00:55:58;;;;;;;1.27;0.38;;;8.50;99.90;;;;;;5073676;28;20009;-76
2021/11/06 00:58:24;;;;;;;7.93;0.90;;;8.40;99.90;;;;;;5073586;28;20099;-76
2021/11/06 01:00:49;;;;;;;6.82;0.68;;;8.40;99.90;;;;;;5073617;28;20177;-76
2021/11/06 01:03:15;;;;;;;5.45;0.77;;;8.40;99.90;;;;;;5073965;28;20020;-76
2021/11/06 01:05:40;;;;;;;5.10;1.02;;;8.40;99.90;;;;;;5073572;28;20020;-75
2021/11/06 01:08:07;;;;;;;5.03;0.40;;;8.40;99.90;;;;;;5073337;28;20029;-76
2021/11/06 01:10:32;;;;;;;2.85;0.70;;;8.30;99.90;;;;;;5073450;28;20074;-76
2021/11/06 01:12:58;;;;;;;2.92;0.82;;;8.40;99.90;;;;;;5073518;28;20021;-76
2021/11/06 01:15:24;;;;;;;6.80;0.90;;;8.40;99.90;;;;;;5073388;28;20020;-76
2021/11/06 01:17:49;;;;;;;9.23;1.90;;;8.40;99.90;;;;;;5055451;28;20024;-75
2021/11/06 01:20:16;;;;;;;3.55;0.98;;;8.40;99.90;;;;;;5055435;28;20031;-75
2021/11/06 01:22:42;;;;;;;8.27;1.05;;;8.40;99.90;;;;;;5073555;28;20024;-76
2021/11/06 01:25:09;;;;;;;7.05;1.60;;;8.40;99.90;;;;;;5073325;28;20036;-76
2021/11/06 01:27:35;;;;;;;3.45;1.15;;;8.40;99.90;;;;;;5055226;28;20029;-75
2021/11/06 01:30:00;;;;;;;6.03;1.35;;;8.40;99.90;;;;;;5073502;28;20092;-75
2021/11/06 01:32:26;;;;;;;8.23;1.30;;;8.40;99.90;;;;;;5055299;28;20017;-76
2021/11/06 01:34:51;;;;;;;6.30;1.55;;;8.30;99.90;;;;;;5055093;28;20033;-75
2021/11/06 01:37:17;;;;;;;4.47;1.45;;;8.30;99.90;;;;;;5073101;28;20025;-75
2021/11/06 01:39:43;;;;;;;4.88;1.27;;;8.30;99.90;;;;;;5073152;28;20142;-75
2021/11/06 01:42:12;;;;;;;8.85;1.08;;;8.30;99.90;;;;;;5074046;28;20052;-75
2021/11/06 01:44:37;;;;;;;;;;;9.80;99.90;;;;;;5077734;28;20040;-75
2021/11/06 01:47:03;;;;;;;5.07;1.33;;;8.30;99.90;;;;;;5059262;28;19912;-76
2021/11/06 01:49:29;;;;;;;6.68;1.73;;;8.30;99.90;;;;;;5077060;28;20029;-76
2021/11/06 01:51:54;;;;;;;3.80;1.30;;;8.40;99.90;;;;;;5059206;28;20075;-75
2021/11/06 01:54:25;;;;;;;6.18;1.52;;;8.40;99.90;;;;;;5077181;28;20052;-76
2021/11/06 01:56:54;;;;;;;8.48;1.48;;;8.40;99.90;;;;;;5077071;28;20031;-76
2021/11/06 01:59:19;;;;;;;3.58;1.52;;;8.40;99.90;;;;;;5077081;28;20013;-74
2021/11/06 02:01:46;;;;;;;6.28;1.42;;;8.40;99.90;;;;;;5076994;28;20031;-76
2021/11/06 02:04:11;;;;;;;9.32;1.65;;;8.50;99.90;;;;;;5076915;28;20020;-75
2021/11/06 02:06:37;;;;;;;3.17;1.48;;;8.50;99.90;;;;;;5076908;28;20021;-75
2021/11/06 02:09:03;;;;;;;4.15;1.50;;;8.50;99.90;;;;;;5058838;28;20496;-75
2021/11/06 02:11:29;;;;;;;3.65;1.40;;;8.40;99.90;;;;;;5076874;28;20066;-75
2021/11/06 02:13:54;;;;;;;3.38;1.25;;;8.50;99.90;;;;;;5076921;28;20024;-76
2021/11/06 02:16:20;;;;;;;5.68;1.50;;;8.40;99.90;;;;;;5076739;28;20049;-75
2021/11/06 02:18:47;;;;;;;4.90;1.63;;;8.50;99.90;;;;;;5076899;28;20031;-75
2021/11/06 02:21:13;;;;;;;2.80;1.13;;;8.40;99.90;;;;;;5076618;28;20021;-77
2021/11/06 02:23:44;;;;;;;5.63;1.38;;;8.50;99.90;;;;;;5076601;28;20028;-77
2021/11/06 02:26:12;;;;;;;7.43;1.67;;;8.60;99.90;;;;;;5076544;28;20070;-77
2021/11/06 02:28:42;;;;;;;6.77;2.20;;;8.60;99.90;;;;;;5076835;28;20020;-77
2021/11/06 02:31:08;;;;;;;4.35;1.40;;;8.60;99.90;;;;;;5058961;28;20485;-78
2021/11/06 02:33:34;;;;;;;5.35;2.03;;;8.50;99.90;;;;;;5076434;28;20025;-77
2021/11/06 02:36:00;;;;;;;7.70;2.03;;;8.60;99.90;;;;;;5076863;28;20024;-78
2021/11/06 02:38:27;;;;;;;5.50;1.83;;;8.50;99.90;;;;;;5058376;28;20510;-78
2021/11/06 02:40:53;;;;;;;4.20;1.80;;;8.40;99.90;;;;;;5076270;28;20020;-78
2021/11/06 02:43:18;;;;;;;4.90;1.75;;;8.40;99.90;;;;;;5076516;28;20024;-78
2021/11/06 02:45:44;;;;;;;5.03;1.60;;;8.40;99.90;;;;;;5076099;28;20466;-78
2021/11/06 02:48:10;;;;;;;7.45;1.73;;;8.40;99.90;;;;;;5058062;28;20132;-77
2021/11/06 02:50:35;;;;;;;7.35;2.75;;;8.40;99.90;;;;;;5058133;28;20043;-77
2021/11/06 02:53:02;;;;;;;8.27;2.58;;;8.60;99.90;;;;;;5076663;28;20070;-77
2021/11/06 02:55:27;;;;;;;7.05;2.92;;;8.30;99.90;;;;;;5075043;28;20020;-77
2021/11/06 02:57:53;;;;;;;13.85;2.63;;;8.30;99.90;;;;;;5075803;28;20032;-75
2021/11/06 03:00:20;;;;;;;11.57;2.95;;;8.20;99.90;;;;;;5076407;28;20036;-75
2021/11/06 03:02:46;;;;;;;7.40;2.67;;;8.20;99.90;;;;;;5075834;28;20421;-75
2021/11/06 03:05:13;;;;;;;10.57;3.05;;;8.20;99.90;;;;;;5075668;28;20035;-75
2021/11/06 03:07:40;;;;;;;9.48;3.47;;;8.20;99.90;;;;;;5076076;28;20016;-74
2021/11/06 03:10:08;;;;;;;8.88;3.20;;;8.20;99.90;;;;;;5057773;28;20040;-74
2021/11/06 03:12:34;;;;;;;6.53;2.97;;;8.20;99.90;;;;;;5057806;28;20063;-76
2021/11/06 03:15:10;;;;;;;8.00;3.20;;;8.20;99.90;;;;;;5075651;28;20027;-76
2021/11/06 03:17:36;;;;;;;6.90;3.10;;;8.40;99.90;;;;;;5057825;28;20028;-77
2021/11/06 03:20:04;;;;;;;4.75;2.45;;;8.10;99.90;;;;;;5057634;28;20131;-77
2021/11/06 03:22:30;;;;;;;7.07;3.23;;;8.20;99.90;;;;;;5057588;28;20382;-77
2021/11/06 03:24:56;;;;;;;7.15;3.40;;;8.20;99.90;;;;;;5076070;28;20262;-77
2021/11/06 03:27:21;;;;;;;8.55;3.03;;;8.20;99.90;;;;;;5075294;28;20035;-77
2021/11/06 03:29:47;;;;;;;9.48;3.17;;;8.10;99.90;;;;;;5075446;28;20021;-77
2021/11/06 03:32:12;;;;;;;7.15;2.78;;;8.10;99.90;;;;;;5075386;28;20020;-78
2021/11/06 03:34:38;;;;;;;8.23;2.53;;;8.20;99.90;;;;;;5075239;28;20115;-78
2021/11/06 03:37:04;;;;;;;6.70;2.47;;;8.20;99.90;;;;;;5075403;28;20044;-77
2021/11/06 03:39:30;;;;;;;8.07;2.72;;;8.30;99.90;;;;;;5075118;28;20241;-77
2021/11/06 03:41:55;;;;;;;9.25;2.95;;;8.20;99.90;;;;;;5057243;28;20052;-78
2021/11/06 03:44:21;;;;;;;8.65;2.88;;;8.20;99.90;;;;;;5057546;28;20016;-79
2021/11/06 03:46:47;;;;;;;8.48;2.95;;;8.20;99.90;;;;;;5075360;28;20062;-78
2021/11/06 03:49:13;;;;;;;8.45;3.25;;;8.20;99.90;;;;;;5057020;28;20409;-78
2021/11/06 03:51:38;;;;;;;5.40;2.28;;;8.20;99.90;;;;;;5075766;28;20024;-78
2021/11/06 03:54:04;;;;;;;5.88;2.75;;;8.20;99.90;;;;;;5075846;28;20030;-78
2021/11/06 03:56:30;;;;;;;5.63;2.65;;;8.20;99.90;;;;;;5075194;28;20032;-78
2021/11/06 03:58:58;;;;;;;6.32;2.67;;;8.20;99.90;;;;;;5075217;28;20482;-78
2021/11/06 04:01:24;;;;;;;9.43;3.38;;;8.10;99.90;;;;;;5057887;28;20024;-79
2021/11/06 04:03:49;;;;;;;9.32;3.40;;;8.10;99.90;;;;;;5074960;28;20091;-78
2021/11/06 04:06:16;;;;;;;8.10;3.28;;;8.10;99.90;;;;;;5074752;28;20036;-78
2021/11/06 04:08:42;;;;;;;8.20;3.22;;;8.20;99.90;;;;;;5057243;28;20393;-78
2021/11/06 04:11:08;;;;;;;7.88;3.33;;;8.10;99.90;;;;;;5075277;28;20350;-78
2021/11/06 04:13:33;;;;;;;9.93;3.47;;;8.10;99.90;;;;;;5074984;28;20104;-77
2021/11/06 04:15:59;;;;;;;11.93;3.55;;;8.00;99.90;;;;;;5074745;28;20043;-78
2021/11/06 04:18:25;;;;;;;7.00;3.20;;;8.00;99.90;;;;;;5056396;28;20024;-78
2021/11/06 04:20:51;;;;;;;7.53;3.60;;;8.00;99.90;;;;;;5074485;28;20025;-78
2021/11/06 04:23:16;;;;;;;14.82;4.28;;;8.00;99.90;;;;;;5074433;28;20025;-78
2021/11/06 04:25:42;;;;;;;11.73;4.32;;;8.10;99.90;;;;;;5074619;28;20028;-78
2021/11/06 04:28:08;;;;;;;13.98;4.22;;;8.10;99.90;;;;;;5056670;28;20161;-78
2021/11/06 04:30:34;;;;;;;10.15;3.45;;;8.10;99.90;;;;;;5075648;28;20021;-78
2021/11/06 04:32:59;;;;;;;7.78;4.13;;;8.10;99.90;;;;;;5074902;28;20035;-78
2021/11/06 04:35:25;;;;;;;10.32;4.93;;;8.00;99.90;;;;;;5075470;28;20066;-78
2021/11/06 04:37:50;;;;;;;12.10;4.75;;;8.00;99.90;;;;;;5057271;28;20532;-78
2021/11/06 04:40:16;;;;;;;9.55;4.50;;;8.10;99.90;;;;;;5075440;28;20085;-79
2021/11/06 04:42:42;;;;;;;8.45;4.03;;;8.00;99.90;;;;;;5057497;28;20119;-78
2021/11/06 04:45:09;;;;;;;12.73;4.13;;;8.10;99.90;;;;;;5056549;28;20025;-78
2021/11/06 04:47:35;;;;;;;10.93;4.10;;;8.00;99.90;;;;;;5074935;28;20028;-78
2021/11/06 04:50:03;;;;;;;12.30;5.15;;;8.00;99.90;;;;;;5074964;28;20027;-79
2021/11/06 04:52:29;;;;;;;9.77;4.18;;;8.00;99.90;;;;;;5074827;28;20078;-78
2021/11/06 04:54:54;;;;;;;11.85;4.70;;;8.00;99.90;;;;;;5057961;28;20113;-78
2021/11/06 04:57:20;;;;;;;9.30;4.57;;;8.00;99.90;;;;;;5073900;28;20366;-78
2021/11/06 04:59:46;;;;;;;12.68;4.43;;;8.00;99.90;;;;;;5056731;28;20536;-78
2021/11/06 05:02:12;;;;;;;11.88;5.63;;;8.10;99.90;;;;;;5055719;28;20021;-77
2021/11/06 05:04:37;;;;;;;12.02;5.45;;;8.00;99.90;;;;;;5074224;28;20039;-77
2021/11/06 05:07:04;;;;;;;14.55;4.75;;;8.00;99.90;;;;;;5055446;28;20028;-77
2021/11/06 05:09:30;;;;;;;13.82;5.82;;;8.00;99.90;;;;;;5073613;28;20024;-77
2021/11/06 05:11:55;;;;;;;14.60;5.28;;;8.10;99.90;;;;;;5075018;28;20028;-78
2021/11/06 05:14:21;;;;;;;12.48;5.45;;;8.10;99.90;;;;;;5075604;28;20032;-78
2021/11/06 05:16:49;;;;;;;13.70;5.18;;;8.10;99.90;;;;;;5075526;28;20025;-79
2021/11/06 05:19:15;;;;;;;13.70;6.13;;;8.10;99.90;;;;;;5075914;28;20023;-79
2021/11/06 05:21:41;;;;;;;16.27;5.18;;;8.00;99.90;;;;;;5058413;28;20259;-79
2021/11/06 05:24:08;;;;;;;16.98;6.13;;;8.10;99.90;;;;;;5075411;28;20023;-78
2021/11/06 05:26:34;;;;;;;14.35;5.90;;;8.10;99.90;;;;;;5073729;28;20021;-77
2021/11/06 05:29:04;;;;;;;13.85;6.07;;;8.10;99.90;;;;;;5073692;28;20296;-77
2021/11/06 05:31:30;;;;;;;18.90;5.50;;;8.10;99.90;;;;;;5055367;28;20025;-77
2021/11/06 05:33:56;;;;;;;13.27;5.40;;;8.10;99.90;;;;;;5073423;28;20037;-77
2021/11/06 05:36:21;;;;;;;15.95;6.15;;;8.10;99.90;;;;;;5073504;28;20013;-77
2021/11/06 05:38:47;;;;;;;15.88;6.47;;;8.10;99.90;;;;;;5073175;28;20029;-78
2021/11/06 05:41:12;;;;;;;16.25;5.75;;;8.10;99.90;;;;;;5073255;28;20046;-78
2021/11/06 05:43:38;;;;;;;15.15;7.00;;;8.20;99.90;;;;;;5055553;28;20025;-78
2021/11/06 05:46:04;;;;;;;17.55;6.07;;;8.10;99.90;;;;;;5055396;28;20029;-77
2021/11/06 05:48:29;;;;;;;13.43;5.72;;;8.10;99.90;;;;;;5072983;28;20064;-77
2021/11/06 05:50:55;;;;;;;17.60;6.00;;;8.10;99.90;;;;;;5073452;28;20377;-75
2021/11/06 05:53:20;;;;;;;17.65;7.03;;;8.10;99.90;;;;;;5073318;28;20541;-75
2021/11/06 05:55:47;;;;;;;20.30;6.50;;;8.20;99.90;;;;;;5073585;28;20470;-76
2021/11/06 05:58:12;;;;;;;17.65;6.90;;;8.10;99.90;;;;;;5073495;28;20020;-75
2021/11/06 06:00:38;;;;;;;21.83;8.23;;;8.20;99.90;;;;;;5073180;28;20020;-75
2021/11/06 06:03:04;;;;;;;26.48;8.02;;;8.20;99.90;;;;;;5072941;28;20028;-76
2021/11/06 06:05:29;;;;;;;14.23;5.55;;;8.20;99.90;;;;;;5055008;28;20504;-76
2021/11/06 06:07:55;;;;;;;17.27;6.32;;;8.20;99.90;;;;;;5073017;28;20024;-76
2021/11/06 06:10:23;;;;;;;17.80;6.70;;;8.20;99.90;;;;;;5072891;28;20583;-75
2021/11/06 06:12:53;;;;;;;20.13;7.95;;;8.10;99.90;;;;;;5072886;28;20029;-76
2021/11/06 06:15:21;;;;;;;23.75;8.30;;;8.20;99.90;;;;;;5073087;28;20027;-76
2021/11/06 06:17:48;;;;;;;20.60;7.35;;;8.30;99.90;;;;;;5072720;28;20029;-75
2021/11/06 06:20:14;;;;;;;21.58;6.85;;;8.30;99.90;;;;;;5072645;28;20025;-75
2021/11/06 06:22:40;;;;;;;18.00;7.18;;;8.30;99.90;;;;;;5072851;28;20083;-75
2021/11/06 06:25:07;;;;;;;14.68;6.75;;;8.30;99.90;;;;;;5054727;28;20052;-75
2021/11/06 06:27:33;;;;;;;17.48;6.78;;;8.30;99.90;;;;;;5054614;28;20370;-75
2021/11/06 06:29:58;;;;;;;15.65;7.00;;;8.30;99.90;;;;;;5074740;28;20016;-75
2021/11/06 06:32:24;;;;;;;16.05;6.85;;;8.30;99.90;;;;;;5076381;28;20028;-75
2021/11/06 06:34:50;;;;;;;21.65;8.57;;;8.30;99.90;;;;;;5076215;28;20032;-75
2021/11/06 06:37:15;;;;;;;18.25;6.88;;;8.30;99.90;;;;;;5076249;28;20433;-75
2021/11/06 06:39:41;;;;;;;19.42;6.90;;;8.40;99.90;;;;;;5076872;28;20052;-76
2021/11/06 06:42:07;;;;;;;23.00;7.35;;;8.40;99.90;;;;;;5076467;28;20390;-77
2021/11/06 06:44:32;;;;;;;14.77;6.30;;;8.40;99.90;;;;;;5076421;28;20419;-76
2021/11/06 06:46:58;;;;;;;16.80;6.13;;;8.40;99.90;;;;;;5076081;28;20034;-76
2021/11/06 06:49:24;;;;;;;13.75;6.90;;;8.40;99.90;;;;;;5058115;28;20028;-76
2021/11/06 06:51:50;;;;;;;18.65;7.20;;;8.40;99.90;;;;;;5076097;28;20017;-77
2021/11/06 06:54:15;;;;;;;14.65;6.10;;;9.50;99.90;;;;;;5058213;28;20020;-77
2021/11/06 06:56:43;;;;;;;14.80;6.85;;;8.40;99.90;;;;;;5078581;28;20040;-80
2021/11/06 06:59:09;;;;;;;14.20;6.45;;;8.40;99.90;;;;;;5063061;28;20017;-80
2021/11/06 07:01:35;;;;;;;16.65;6.57;;;8.40;99.90;;;;;;5082046;28;20534;-79
2021/11/06 07:04:00;;;;;;;17.58;7.38;;;8.50;99.90;;;;;;5063355;28;20115;-79
2021/11/06 07:06:26;;;;;;;17.85;7.72;;;8.50;99.90;;;;;;5080899;28;20439;-80
2021/11/06 07:08:52;;;;;;;19.58;6.57;;;8.50;99.90;;;;;;5081971;28;20037;-79
2021/11/06 07:11:18;;;;;;;14.23;5.60;;;8.50;99.90;;;;;;5082922;28;20112;-78
2021/11/06 07:13:44;;;;;;;18.48;7.45;;;8.50;99.90;;;;;;5083367;28;20067;-78
2021/11/06 07:16:11;;;;;;;20.00;5.97;;;8.50;99.90;;;;;;5065212;28;20379;-79
2021/11/06 07:18:37;;;;;;;19.52;6.43;;;8.50;99.90;;;;;;5062354;28;20104;-78
2021/11/06 07:21:03;;;;;;;18.70;7.45;;;8.60;99.90;;;;;;5063652;28;20048;-81
2021/11/06 07:23:28;;;;;;;19.50;7.13;;;8.60;99.90;;;;;;5061561;28;20021;-78
2021/11/06 07:25:59;;;;;;;19.17;6.93;;;8.60;99.90;;;;;;5080365;28;20087;-78
2021/11/06 07:28:25;;;;;;;17.13;6.65;;;8.60;99.90;;;;;;5064185;28;20046;-79
2021/11/06 07:30:51;;;;;;;27.83;7.72;;;8.60;99.90;;;;;;5081730;28;20028;-78
2021/11/06 07:33:17;;;;;;;19.73;6.32;;;8.70;99.90;;;;;;5081353;28;20052;-79
2021/11/06 07:35:42;;;;;;;17.50;6.22;;;8.60;99.90;;;;;;5082107;28;20025;-79
2021/11/06 07:38:08;;;;;;;22.13;7.45;;;8.70;99.90;;;;;;5059357;28;20031;-79
2021/11/06 07:40:33;;;;;;;23.58;6.95;;;8.70;99.90;;;;;;5077862;28;20500;-80
2021/11/06 07:42:59;;;;;;;20.98;6.50;;;8.70;99.90;;;;;;5076399;28;20056;-78
2021/11/06 07:45:25;;;;;;;20.83;7.22;;;8.70;99.90;;;;;;5060913;28;20021;-80
2021/11/06 07:47:50;;;;;;;19.05;7.00;;;8.70;99.90;;;;;;5080519;28;20036;-79
2021/11/06 07:50:18;;;;;;;23.63;7.53;;;8.80;99.90;;;;;;5063326;28;20541;-80
2021/11/06 07:52:43;;;;;;;22.17;7.35;;;8.80;99.90;;;;;;5060030;28;20019;-80
2021/11/06 07:55:09;;;;;;;18.55;7.07;;;8.90;99.90;;;;;;5077043;28;20024;-79
2021/11/06 07:57:35;;;;;;;18.15;7.10;;;9.00;99.90;;;;;;5064344;28;20074;-80
2021/11/06 08:00:04;;;;;;;31.60;8.57;;;9.00;99.90;;;;;;5063958;28;20111;-79
2021/11/06 08:02:30;;;;;;;22.67;7.43;;;9.00;99.90;;;;;;5063948;28;20028;-80
2021/11/06 08:04:55;;;;;;;20.23;6.35;;;9.00;99.90;;;;;;5080134;28;20024;-80
2021/11/06 08:07:21;;;;;;;15.32;5.72;;;9.00;99.90;;;;;;5080544;28;20023;-80
2021/11/06 08:09:48;;;;;;;19.02;6.75;;;9.00;99.90;;;;;;5071316;28;20040;-79
2021/11/06 08:12:13;;;;;;;27.13;5.97;;;9.00;99.90;;;;;;5062033;28;20024;-80
2021/11/06 08:14:39;;;;;;;20.27;6.85;;;9.00;99.90;;;;;;5062473;28;20025;-80
2021/11/06 08:17:04;;;;;;;23.42;7.10;;;9.00;99.90;;;;;;5079612;28;20012;-79
2021/11/06 08:19:30;;;;;;;21.67;6.53;;;10.00;99.90;;;;;;5062490;28;20544;-80
2021/11/06 08:21:56;;;;;;;18.40;6.70;;;9.10;99.90;;;;;;5080060;28;20017;-79
2021/11/06 08:24:22;;;;;;;22.42;6.82;;;9.10;99.90;;;;;;5061766;28;20059;-80
2021/11/06 08:26:49;;;;;;;23.55;7.43;;;9.10;99.90;;;;;;5081253;28;20450;-79
2021/11/06 08:29:14;;;;;;;19.52;6.55;;;9.20;99.90;;;;;;5061837;28;20019;-80
2021/11/06 08:31:41;;;;;;;23.38;6.43;;;9.20;99.90;;;;;;5078856;28;20028;-75
2021/11/06 08:34:06;;;;;;;16.67;6.15;;;9.20;99.90;;;;;;5077927;28;20035;-77
2021/11/06 08:36:32;;;;;;;17.58;5.75;;;9.20;99.90;;;;;;5076835;28;20024;-77
2021/11/06 08:38:58;;;;;;;20.13;5.57;;;9.20;99.90;;;;;;5076476;28;20365;-79
2021/11/06 08:41:24;;;;;;;20.60;5.78;;;9.30;99.90;;;;;;5078678;28;20047;-78
2021/11/06 08:43:50;;;;;;;15.65;5.50;;;9.30;99.90;;;;;;5078015;28;20029;-78
2021/11/06 08:46:15;;;;;;;18.63;5.65;;;9.40;99.90;;;;;;5057621;28;20035;-79
2021/11/06 08:48:41;;;;;;;26.30;7.03;;;9.40;99.90;;;;;;5058703;28;20115;-78
2021/11/06 08:51:07;;;;;;;23.05;5.28;;;9.50;99.90;;;;;;5075718;28;20024;-79
2021/11/06 08:53:33;;;;;;;20.17;5.57;;;9.50;99.90;;;;;;5076685;28;20089;-79
2021/11/06 08:55:58;;;;;;;17.35;5.25;;;9.70;99.90;;;;;;5077260;28;20457;-75
2021/11/06 08:58:24;;;;;;;19.05;4.82;;;9.70;99.90;;;;;;5077258;28;20385;-78
2021/11/06 09:00:50;;;;;;;18.38;5.13;;;9.80;99.90;;;;;;5076966;28;20017;-79
2021/11/06 09:03:19;;;;;;;17.92;4.68;;;9.80;99.90;;;;;;5077927;28;20028;-79
2021/11/06 09:05:50;;;;;;;21.88;5.97;;;10.00;99.90;;;;;;5073407;28;20016;-76
2021/11/06 09:08:18;;;;;;;14.75;3.75;;;10.10;99.90;;;;;;5073695;28;20374;-75
2021/11/06 09:10:45;;;;;;;11.85;4.30;;;10.00;99.90;;;;;;5073389;28;20027;-75
2021/11/06 09:13:11;;;;;;;17.58;5.03;;;10.10;99.90;;;;;;5055066;28;20025;-73
2021/11/06 09:15:37;;;;;;;18.13;4.65;;;10.00;99.90;;;;;;5073299;28;20159;-73
2021/11/06 09:18:02;;;;;;;17.38;4.88;;;10.00;99.90;;;;;;5073456;28;20028;-74
2021/11/06 09:20:28;;;;;;;11.30;3.78;;;9.90;99.90;;;;;;5055509;28;20103;-76
2021/11/06 09:22:54;;;;;;;16.73;4.57;;;9.90;99.90;;;;;;5073577;28;20482;-77
2021/11/06 09:25:20;;;;;;;19.77;5.60;;;9.90;99.90;;;;;;5073887;28;20024;-77
2021/11/06 09:27:46;;;;;;;11.85;4.13;;;9.90;99.90;;;;;;5073311;28;20021;-76
2021/11/06 09:30:12;;;;;;;16.13;4.20;;;10.00;99.90;;;;;;5059160;28;20032;-76
2021/11/06 09:32:39;;;;;;;12.32;3.97;;;10.00;99.90;;;;;;5077042;28;20549;-76
2021/11/06 09:35:05;;;;;;;12.18;3.33;;;10.10;99.90;;;;;;5077797;28;20016;-76
2021/11/06 09:37:31;;;;;;;12.18;4.35;;;10.10;99.90;;;;;;5077872;28;20032;-76
2021/11/06 09:39:57;;;;;;;14.15;3.15;;;10.20;99.90;;;;;;5074841;28;20157;-75
2021/11/06 09:42:23;;;;;;;13.48;4.00;;;10.20;99.90;;;;;;5060059;28;20032;-76
2021/11/06 09:44:50;;;;;;;9.40;3.58;;;10.20;99.90;;;;;;5059692;28;20389;-77
2021/11/06 09:47:17;;;;;;;7.90;2.65;;;10.40;99.90;;;;;;5059145;28;20499;-74
2021/11/06 09:49:43;;;;;;;16.88;3.17;;;10.40;99.90;;;;;;5077699;28;20100;-76
2021/11/06 09:52:11;;;;;;;8.48;3.25;;;10.30;99.90;;;;;;5077180;28;20032;-76
2021/11/06 09:54:38;;;;;;;12.15;2.85;;;10.30;99.90;;;;;;5059312;28;20020;-77
2021/11/06 09:57:05;;;;;;;13.50;2.80;;;10.30;99.90;;;;;;5058588;28;20083;-77
2021/11/06 09:59:31;;;;;;;8.85;3.03;;;10.30;99.90;;;;;;5055066;28;20442;-78
2021/11/06 10:01:57;;;;;;;11.27;3.67;;;10.30;99.90;;;;;;5055192;28;20103;-77
2021/11/06 10:04:25;;;;;;;12.68;3.00;;;10.40;99.90;;;;;;5076016;28;20023;-77
2021/11/06 10:06:51;;;;;;;10.70;3.40;;;10.40;99.90;;;;;;5059136;28;20088;-77
2021/11/06 10:09:17;;;;;;;11.80;3.30;;;10.40;99.90;;;;;;5076929;28;20029;-77
2021/11/06 10:11:46;;;;;;;11.00;2.92;;;10.40;99.90;;;;;;5076890;28;20108;-76
2021/11/06 10:14:23;;;;;;;9.23;2.63;;;10.50;99.90;;;;;;5076830;28;20442;-77
2021/11/06 10:16:55;;;;;;;8.50;2.28;;;10.50;99.90;;;;;;5076803;28;20081;-76
2021/11/06 10:19:22;;;;;;;14.77;3.95;;;10.50;99.90;;;;;;5076734;28;20060;-76
2021/11/06 10:22:07;;;;;;;10.63;3.53;;;10.40;99.90;;;;;;5077854;28;20025;-77
2021/11/06 10:24:42;;;;;;;12.38;3.92;;;10.50;99.90;;;;;;5058043;28;20020;-73
2021/11/06 10:27:28;;;;;;;12.68;2.90;;;10.40;99.90;;;;;;5045609;28;20025;-74
2021/11/06 10:30:09;;;;;;;13.73;3.28;;;10.30;99.90;;;;;;5058687;28;20025;-75
2021/11/06 10:32:36;;;;;;;14.75;4.22;;;10.30;99.90;;;;;;5058412;28;20017;-74
2021/11/06 10:35:19;;;;;;;10.32;2.50;;;10.30;99.90;;;;;;5061807;28;20033;-73
2021/11/06 10:37:47;;;;;;;12.38;3.65;;;7.60;99.90;;;;;;5076338;28;20056;-74
2021/11/06 10:40:16;;;;;;;15.73;2.83;;;10.30;99.90;;;;;;5076843;28;20491;-75
2021/11/06 10:42:52;;;;;;;13.35;3.38;;;10.30;99.90;;;;;;5076183;28;20323;-76
2021/11/06 10:45:21;;;;;;;19.55;3.40;;;10.30;99.90;;;;;;5076256;28;20031;-75
2021/11/06 10:47:53;;;;;;;15.55;4.13;;;10.30;99.90;;;;;;5076104;28;20501;-75
2021/11/06 10:50:53;;;;;;;15.88;4.32;;;10.30;99.90;;;;;;5058422;28;20031;-75
2021/11/06 10:53:34;;;;;;;16.02;3.50;;;10.30;99.90;;;;;;5076532;28;20020;-75
2021/11/06 10:56:05;;;;;;;12.32;2.75;;;10.40;99.90;;;;;;5058251;28;20032;-74
2021/11/06 10:58:34;;;;;;;11.63;2.78;;;10.50;99.90;;;;;;5077008;28;20032;-74
2021/11/06 11:01:08;;;;;;;11.40;2.97;;;10.70;99.90;;;;;;5075873;28;20048;-75
2021/11/06 11:03:42;;;;;;;11.13;2.67;;;10.70;99.90;;;;;;5058070;28;20021;-75
2021/11/06 11:06:12;;;;;;;13.85;2.92;;;10.70;99.90;;;;;;5075812;28;20026;-74
2021/11/06 11:08:45;;;;;;;12.85;3.65;;;10.60;99.90;;;;;;5057827;28;20033;-75
2021/11/06 11:11:12;;;;;;;11.93;2.80;;;10.60;99.90;;;;;;5075925;28;20524;-76
2021/11/06 11:14:00;;;;;;;10.93;2.65;;;10.60;99.90;;;;;;5057583;28;20024;-75
2021/11/06 11:16:26;;;;;;;11.50;3.15;;;10.50;99.90;;;;;;5075981;28;20100;-76
2021/11/06 11:18:54;;;;;;;8.80;2.33;;;10.50;99.90;;;;;;5057619;28;20595;-76
2021/11/06 11:21:26;;;;;;;10.50;3.20;;;10.50;99.90;;;;;;5075750;28;20062;-74
2021/11/06 11:24:04;;;;;;;13.27;3.20;;;10.50;99.90;;;;;;5075493;28;20058;-73
2021/11/06 11:26:38;;;;;;;12.13;3.43;;;10.60;99.90;;;;;;5075600;28;20050;-75
2021/11/06 11:29:06;;;;;;;10.15;2.42;;;10.70;99.90;;;;;;5057413;28;20025;-76
2021/11/06 11:31:31;;;;;;;11.73;2.78;;;10.80;99.90;;;;;;5057482;28;20469;-75
2021/11/06 11:33:57;;;;;;;9.85;2.90;;;10.90;99.90;;;;;;5075322;28;20039;-75
2021/11/06 11:36:26;;;;;;;11.75;2.90;;;10.90;99.90;;;;;;5075351;28;20032;-75
2021/11/06 11:38:52;;;;;;;10.00;2.63;;;10.90;99.90;;;;;;5075307;28;20017;-76
2021/11/06 11:41:39;;;;;;;15.20;2.97;;;11.00;99.90;;;;;;5057723;28;20115;-75
2021/11/06 11:44:38;;;;;;;8.43;2.55;;;11.00;99.90;;;;;;5057237;28;20031;-74
2021/11/06 11:47:06;;;;;;;7.72;1.83;;;11.10;99.90;;;;;;5057553;28;20367;-76
2021/11/06 11:49:35;;;;;;;10.25;3.28;;;11.20;99.90;;;;;;5057122;28;20021;-79
2021/11/06 11:52:34;;;;;;;13.27;2.80;;;11.30;99.90;;;;;;5060046;28;20111;-79
2021/11/06 11:55:12;;;;;;;12.07;2.88;;;11.40;99.90;;;;;;5059849;28;20032;-79
2021/11/06 11:57:41;;;;;;;6.60;1.98;;;11.50;99.90;;;;;;5079777;28;20354;-79
2021/11/06 12:00:18;;;;;;;7.38;1.45;;;11.60;99.90;;;;;;5059863;28;20492;-80
2021/11/06 12:03:04;;;;;;;11.40;1.75;;;11.70;99.90;;;;;;5059362;28;20127;-81
2021/11/06 12:05:56;;;;;;;7.63;2.03;;;11.70;99.90;;;;;;5060091;28;20031;-80
2021/11/06 12:08:22;;;;;;;4.07;1.40;;;11.80;99.90;;;;;;5074370;28;20040;-82
2021/11/06 12:10:55;;;;;;;6.20;2.15;;;11.80;99.90;;;;;;5059184;28;20092;-79
2021/11/06 12:13:30;;;;;;;4.78;1.25;;;11.90;99.90;;;;;;5058710;28;20031;-80
2021/11/06 12:16:03;;;;;;;11.13;1.65;;;11.90;99.90;;;;;;5059460;28;20477;-80
2021/11/06 12:18:44;;;;;;;4.15;1.35;;;11.90;99.90;;;;;;5058394;28;20020;-82
2021/11/06 12:21:20;;;;;;;5.30;1.55;;;11.90;99.90;;;;;;5058825;28;20025;-79
2021/11/06 12:24:06;;;;;;;6.57;1.67;;;12.00;99.90;;;;;;5077132;28;20020;-79
2021/11/06 12:26:33;;;;;;;5.00;1.92;;;12.00;99.90;;;;;;5075428;28;20029;-79
2021/11/06 12:29:10;;;;;;;7.57;2.28;;;11.90;99.90;;;;;;5057901;28;20050;-79
2021/11/06 12:31:40;;;;;;;9.80;1.92;;;11.90;99.90;;;;;;5077289;28;20056;-80
2021/11/06 12:34:07;;;;;;;10.98;1.73;;;11.90;99.90;;;;;;5076461;28;20017;-79
2021/11/06 12:36:40;;;;;;;7.88;1.80;;;12.00;99.90;;;;;;5075805;28;20055;-76
2021/11/06 12:39:06;;;;;;;4.40;1.10;;;12.00;99.90;;;;;;5073980;28;20025;-75
2021/11/06 12:41:39;;;;;;;7.15;3.00;;;12.00;99.90;;;;;;5056032;28;20039;-76
2021/11/06 12:44:08;;;;;;;8.10;1.90;;;11.90;99.90;;;;;;5056116;28;20062;-76
2021/11/06 12:46:38;;;;;;;5.22;1.42;;;11.80;99.90;;;;;;5073889;28;20017;-76
2021/11/06 12:49:10;;;;;;;4.03;1.80;;;11.80;99.90;;;;;;5055710;28;20067;-76
2021/11/06 12:51:38;;;;;;;10.98;2.45;;;11.80;99.90;;;;;;5074665;28;20028;-76